sensor_id;sensor_type;location;lat;lon;timestamp;pressure;altitude;pressure_sealevel;temperature;humidity
54270;BME280;40181;51.560;13.000;2023-04-24T00:01:45;99434.00;;;12.98;96.06
54270;BME280;40181;51.560;13.000;2023-04-24T00:04:15;99432.13;;;13.03;96.31
54270;BME280;40181;51.560;13.000;2023-04-24T00:06:44;99420.41;;;13.23;94.52
54270;BME280;40181;51.560;13.000;2023-04-24T00:09:14;99420.41;;;13.24;94.59
54270;BME280;40181;51.560;13.000;2023-04-24T00:11:43;99429.06;;;13.31;93.74
54270;BME280;40181;51.560;13.000;2023-04-24T00:14:12;99417.47;;;13.43;93.40
54270;BME280;40181;51.560;13.000;2023-04-24T00:16:41;99417.47;;;13.46;92.79
54270;BME280;40181;51.560;13.000;2023-04-24T00:19:13;99409.69;;;13.34;93.43
54270;BME280;40181;51.560;13.000;2023-04-24T00:21:42;99409.53;;;13.46;92.78
54270;BME280;40181;51.560;13.000;2023-04-24T00:24:11;99398.78;;;13.57;91.52
54270;BME280;40181;51.560;13.000;2023-04-24T00:26:40;99407.59;;;13.58;91.84
54270;BME280;40181;51.560;13.000;2023-04-24T00:29:09;99403.22;;;13.57;91.24
54270;BME280;40181;51.560;13.000;2023-04-24T00:31:39;99402.25;;;13.61;90.90
54270;BME280;40181;51.560;13.000;2023-04-24T00:34:11;99389.88;;;13.64;90.60
54270;BME280;40181;51.560;13.000;2023-04-24T00:36:40;99384.69;;;13.58;91.28
54270;BME280;40181;51.560;13.000;2023-04-24T00:39:09;99384.03;;;13.45;91.88
54270;BME280;40181;51.560;13.000;2023-04-24T00:41:38;99373.50;;;13.44;91.42
54270;BME280;40181;51.560;13.000;2023-04-24T00:44:07;99375.19;;;13.48;91.49
54270;BME280;40181;51.560;13.000;2023-04-24T00:46:37;99369.13;;;13.41;91.28
54270;BME280;40181;51.560;13.000;2023-04-24T00:49:07;99368.22;;;13.44;90.96
54270;BME280;40181;51.560;13.000;2023-04-24T00:51:38;99382.56;;;13.27;91.77
54270;BME280;40181;51.560;13.000;2023-04-24T00:54:10;99381.50;;;13.39;91.26
54270;BME280;40181;51.560;13.000;2023-04-24T00:56:40;99388.09;;;13.10;92.32
54270;BME280;40181;51.560;13.000;2023-04-24T00:59:10;99370.44;;;13.17;92.65
54270;BME280;40181;51.560;13.000;2023-04-24T01:01:40;99379.16;;;13.20;92.47
54270;BME280;40181;51.560;13.000;2023-04-24T01:04:13;99375.47;;;13.31;92.24
54270;BME280;40181;51.560;13.000;2023-04-24T01:06:43;99366.47;;;13.42;91.34
54270;BME280;40181;51.560;13.000;2023-04-24T01:09:13;99374.28;;;13.49;91.20
54270;BME280;40181;51.560;13.000;2023-04-24T01:11:42;99373.47;;;13.47;90.89
54270;BME280;40181;51.560;13.000;2023-04-24T01:14:11;99381.75;;;13.22;92.86
54270;BME280;40181;51.560;13.000;2023-04-24T01:16:41;99367.34;;;13.41;91.61
54270;BME280;40181;51.560;13.000;2023-04-24T01:19:13;99376.09;;;13.47;91.18
54270;BME280;40181;51.560;13.000;2023-04-24T01:21:44;99373.59;;;13.36;92.03
54270;BME280;40181;51.560;13.000;2023-04-24T01:24:18;99392.00;;;13.40;91.61
54270;BME280;40181;51.560;13.000;2023-04-24T01:26:48;99383.09;;;13.49;91.13
54270;BME280;40181;51.560;13.000;2023-04-24T01:29:17;99393.78;;;13.38;91.66
54270;BME280;40181;51.560;13.000;2023-04-24T01:31:46;99391.81;;;12.96;94.10
54270;BME280;40181;51.560;13.000;2023-04-24T01:34:16;99394.31;;;13.07;93.43
54270;BME280;40181;51.560;13.000;2023-04-24T01:36:46;99395.06;;;13.14;93.62
54270;BME280;40181;51.560;13.000;2023-04-24T01:39:18;99390.47;;;13.27;92.88
54270;BME280;40181;51.560;13.000;2023-04-24T01:41:48;99379.13;;;13.22;93.13
54270;BME280;40181;51.560;13.000;2023-04-24T01:44:18;99375.25;;;13.43;91.87
54270;BME280;40181;51.560;13.000;2023-04-24T01:46:47;99381.06;;;13.09;93.86
54270;BME280;40181;51.560;13.000;2023-04-24T01:49:16;99378.06;;;13.32;92.03
54270;BME280;40181;51.560;13.000;2023-04-24T01:51:46;99380.84;;;13.23;92.20
54270;BME280;40181;51.560;13.000;2023-04-24T01:54:20;99384.28;;;13.30;91.76
54270;BME280;40181;51.560;13.000;2023-04-24T01:56:49;99366.47;;;13.42;90.92
54270;BME280;40181;51.560;13.000;2023-04-24T01:59:20;99365.56;;;13.45;90.92
54270;BME280;40181;51.560;13.000;2023-04-24T02:01:50;99362.97;;;13.42;90.91
54270;BME280;40181;51.560;13.000;2023-04-24T02:04:23;99371.09;;;13.30;91.38
54270;BME280;40181;51.560;13.000;2023-04-24T02:06:52;99365.09;;;13.18;91.40
54270;BME280;40181;51.560;13.000;2023-04-24T02:09:24;99370.91;;;12.85;92.86
54270;BME280;40181;51.560;13.000;2023-04-24T02:11:53;99357.16;;;13.21;91.56
54270;BME280;40181;51.560;13.000;2023-04-24T02:14:22;99366.88;;;13.18;91.15
54270;BME280;40181;51.560;13.000;2023-04-24T02:16:51;99366.91;;;13.16;91.53
54270;BME280;40181;51.560;13.000;2023-04-24T02:19:21;99367.66;;;13.23;90.68
54270;BME280;40181;51.560;13.000;2023-04-24T02:21:50;99367.22;;;12.96;92.50
54270;BME280;40181;51.560;13.000;2023-04-24T02:24:19;99364.03;;;12.75;93.67
54270;BME280;40181;51.560;13.000;2023-04-24T02:26:51;99381.50;;;12.81;94.03
54270;BME280;40181;51.560;13.000;2023-04-24T02:29:20;99378.66;;;12.96;92.73
54270;BME280;40181;51.560;13.000;2023-04-24T02:31:49;99374.06;;;12.47;96.14
54270;BME280;40181;51.560;13.000;2023-04-24T02:34:18;99371.91;;;12.77;94.51
54270;BME280;40181;51.560;13.000;2023-04-24T02:36:48;99363.94;;;12.81;94.19
54270;BME280;40181;51.560;13.000;2023-04-24T02:39:18;99372.06;;;12.67;95.13
54270;BME280;40181;51.560;13.000;2023-04-24T02:41:48;99373.00;;;12.62;95.70
54270;BME280;40181;51.560;13.000;2023-04-24T02:44:19;99376.50;;;12.64;95.17
54270;BME280;40181;51.560;13.000;2023-04-24T02:46:48;99377.53;;;12.50;95.16
54270;BME280;40181;51.560;13.000;2023-04-24T02:49:17;99370.44;;;12.57;95.93
54270;BME280;40181;51.560;13.000;2023-04-24T02:51:46;99371.34;;;12.54;95.33
54270;BME280;40181;51.560;13.000;2023-04-24T02:54:15;99362.34;;;11.97;97.64
54270;BME280;40181;51.560;13.000;2023-04-24T02:56:44;99360.09;;;12.41;96.34
54270;BME280;40181;51.560;13.000;2023-04-24T02:59:16;99370.03;;;12.21;96.46
54270;BME280;40181;51.560;13.000;2023-04-24T03:01:45;99359.47;;;12.24;96.23
54270;BME280;40181;51.560;13.000;2023-04-24T03:04:14;99352.47;;;12.21;97.13
54270;BME280;40181;51.560;13.000;2023-04-24T03:06:45;99362.19;;;12.16;97.14
54270;BME280;40181;51.560;13.000;2023-04-24T03:09:14;99349.09;;;12.11;97.24
54270;BME280;40181;51.560;13.000;2023-04-24T03:11:43;99362.41;;;11.96;97.03
54270;BME280;40181;51.560;13.000;2023-04-24T03:14:16;99355.31;;;12.02;97.18
54270;BME280;40181;51.560;13.000;2023-04-24T03:16:45;99377.34;;;11.92;97.88
54270;BME280;40181;51.560;13.000;2023-04-24T03:19:15;99371.19;;;11.95;97.78
54270;BME280;40181;51.560;13.000;2023-04-24T03:21:44;99368.41;;;12.09;96.84
54270;BME280;40181;51.560;13.000;2023-04-24T03:24:13;99363.28;;;11.93;98.06
54270;BME280;40181;51.560;13.000;2023-04-24T03:26:42;99372.13;;;11.87;97.89
54270;BME280;40181;51.560;13.000;2023-04-24T03:29:11;99367.72;;;11.88;97.94
54270;BME280;40181;51.560;13.000;2023-04-24T03:31:43;99369.63;;;11.76;97.87
54270;BME280;40181;51.560;13.000;2023-04-24T03:34:12;99360.13;;;11.63;99.30
54270;BME280;40181;51.560;13.000;2023-04-24T03:36:41;99366.81;;;11.94;97.51
54270;BME280;40181;51.560;13.000;2023-04-24T03:39:12;99370.63;;;11.63;98.05
54270;BME280;40181;51.560;13.000;2023-04-24T03:41:41;99375.84;;;11.66;98.87
54270;BME280;40181;51.560;13.000;2023-04-24T03:44:10;99365.28;;;11.71;97.79
54270;BME280;40181;51.560;13.000;2023-04-24T03:46:40;99377.66;;;11.64;97.83
54270;BME280;40181;51.560;13.000;2023-04-24T03:49:11;99371.31;;;11.82;96.37
54270;BME280;40181;51.560;13.000;2023-04-24T03:51:40;99388.06;;;11.72;96.51
54270;BME280;40181;51.560;13.000;2023-04-24T03:54:09;99373.91;;;11.85;96.27
54270;BME280;40181;51.560;13.000;2023-04-24T03:56:39;99380.88;;;11.91;95.45
54270;BME280;40181;51.560;13.000;2023-04-24T03:59:08;99380.13;;;11.78;95.79
54270;BME280;40181;51.560;13.000;2023-04-24T04:01:38;99384.41;;;11.88;95.09
54270;BME280;40181;51.560;13.000;2023-04-24T04:04:10;99388.88;;;11.79;95.37
54270;BME280;40181;51.560;13.000;2023-04-24T04:06:39;99395.81;;;11.87;94.59
54270;BME280;40181;51.560;13.000;2023-04-24T04:09:09;99392.28;;;11.90;94.71
54270;BME280;40181;51.560;13.000;2023-04-24T04:11:38;99384.53;;;11.76;95.26
54270;BME280;40181;51.560;13.000;2023-04-24T04:14:07;99388.81;;;11.85;95.30
54270;BME280;40181;51.560;13.000;2023-04-24T04:16:36;99403.91;;;11.69;94.72
54270;BME280;40181;51.560;13.000;2023-04-24T04:19:06;99404.50;;;11.93;94.27
54270;BME280;40181;51.560;13.000;2023-04-24T04:21:37;99404.47;;;12.00;93.70
54270;BME280;40181;51.560;13.000;2023-04-24T04:24:07;99402.78;;;11.93;94.35
54270;BME280;40181;51.560;13.000;2023-04-24T04:26:36;99402.91;;;11.81;94.30
54270;BME280;40181;51.560;13.000;2023-04-24T04:29:05;99388.81;;;11.83;94.22
54270;BME280;40181;51.560;13.000;2023-04-24T04:31:36;99389.84;;;11.71;94.29
54270;BME280;40181;51.560;13.000;2023-04-24T04:34:05;99387.13;;;11.81;93.92
54270;BME280;40181;51.560;13.000;2023-04-24T04:36:34;99397.66;;;11.77;93.85
54270;BME280;40181;51.560;13.000;2023-04-24T04:39:06;99392.47;;;11.71;93.41
54270;BME280;40181;51.560;13.000;2023-04-24T04:41:35;99400.25;;;11.84;93.74
54270;BME280;40181;51.560;13.000;2023-04-24T04:44:05;99410.94;;;11.65;94.47
54270;BME280;40181;51.560;13.000;2023-04-24T04:46:35;99393.31;;;11.75;94.25
54270;BME280;40181;51.560;13.000;2023-04-24T04:49:04;99403.75;;;11.83;93.89
54270;BME280;40181;51.560;13.000;2023-04-24T04:51:33;99391.50;;;11.79;94.17
54270;BME280;40181;51.560;13.000;2023-04-24T04:54:05;99395.28;;;11.53;94.86
54270;BME280;40181;51.560;13.000;2023-04-24T04:56:34;99400.38;;;11.70;94.42
54270;BME280;40181;51.560;13.000;2023-04-24T04:59:03;99397.69;;;11.74;93.43
54270;BME280;40181;51.560;13.000;2023-04-24T05:01:32;99395.88;;;11.84;93.56
54270;BME280;40181;51.560;13.000;2023-04-24T05:04:02;99405.34;;;11.96;92.53
54270;BME280;40181;51.560;13.000;2023-04-24T05:06:31;99399.53;;;11.66;93.76
54270;BME280;40181;51.560;13.000;2023-04-24T05:09:00;99402.03;;;11.80;93.30
54270;BME280;40181;51.560;13.000;2023-04-24T05:11:32;99413.34;;;11.90;93.03
54270;BME280;40181;51.560;13.000;2023-04-24T05:14:01;99407.09;;;11.97;92.37
54270;BME280;40181;51.560;13.000;2023-04-24T05:16:30;99408.81;;;12.08;91.95
54270;BME280;40181;51.560;13.000;2023-04-24T05:18:59;99408.94;;;11.90;92.30
54270;BME280;40181;51.560;13.000;2023-04-24T05:21:28;99419.31;;;12.08;91.93
54270;BME280;40181;51.560;13.000;2023-04-24T05:23:57;99426.38;;;12.01;91.65
54270;BME280;40181;51.560;13.000;2023-04-24T05:26:26;99434.19;;;12.13;91.42
54270;BME280;40181;51.560;13.000;2023-04-24T05:28:58;99429.75;;;12.15;91.11
54270;BME280;40181;51.560;13.000;2023-04-24T05:31:27;99421.16;;;11.96;93.02
54270;BME280;40181;51.560;13.000;2023-04-24T05:33:56;99421.03;;;12.10;91.68
54270;BME280;40181;51.560;13.000;2023-04-24T05:36:26;99429.88;;;12.04;92.07
54270;BME280;40181;51.560;13.000;2023-04-24T05:38:56;99435.13;;;12.04;91.76
54270;BME280;40181;51.560;13.000;2023-04-24T05:41:25;99435.88;;;12.21;90.66
54270;BME280;40181;51.560;13.000;2023-04-24T05:43:54;99446.34;;;12.24;90.38
54270;BME280;40181;51.560;13.000;2023-04-24T05:46:25;99458.88;;;11.98;91.33
54270;BME280;40181;51.560;13.000;2023-04-24T05:48:55;99452.56;;;12.15;90.75
54270;BME280;40181;51.560;13.000;2023-04-24T05:51:24;99447.94;;;12.39;90.00
54270;BME280;40181;51.560;13.000;2023-04-24T05:53:53;99447.34;;;12.10;91.10
54270;BME280;40181;51.560;13.000;2023-04-24T05:56:23;99434.81;;;12.34;90.31
54270;BME280;40181;51.560;13.000;2023-04-24T05:58:52;99448.03;;;12.29;90.47
54270;BME280;40181;51.560;13.000;2023-04-24T06:01:24;99440.97;;;12.31;90.46
54270;BME280;40181;51.560;13.000;2023-04-24T06:03:53;99434.69;;;12.43;89.92
54270;BME280;40181;51.560;13.000;2023-04-24T06:06:23;99440.31;;;12.14;90.14
54270;BME280;40181;51.560;13.000;2023-04-24T06:08:55;99441.28;;;12.07;91.00
54270;BME280;40181;51.560;13.000;2023-04-24T06:11:24;99443.03;;;12.04;91.19
54270;BME280;40181;51.560;13.000;2023-04-24T06:13:53;99441.22;;;12.11;91.04
54270;BME280;40181;51.560;13.000;2023-04-24T06:16:25;99445.59;;;12.12;91.33
54270;BME280;40181;51.560;13.000;2023-04-24T06:18:54;99447.13;;;12.32;89.64
54270;BME280;40181;51.560;13.000;2023-04-24T06:21:23;99452.41;;;12.30;89.40
54270;BME280;40181;51.560;13.000;2023-04-24T06:23:53;99450.72;;;12.23;89.85
54270;BME280;40181;51.560;13.000;2023-04-24T06:26:23;99446.34;;;12.24;90.67
54270;BME280;40181;51.560;13.000;2023-04-24T06:28:52;99453.47;;;12.14;91.01
54270;BME280;40181;51.560;13.000;2023-04-24T06:31:26;99460.38;;;12.26;90.25
54270;BME280;40181;51.560;13.000;2023-04-24T06:33:55;99457.34;;;12.60;89.19
54270;BME280;40181;51.560;13.000;2023-04-24T06:36:24;99447.03;;;12.40;89.47
54270;BME280;40181;51.560;13.000;2023-04-24T06:38:55;99456.81;;;12.28;89.44
54270;BME280;40181;51.560;13.000;2023-04-24T06:41:25;99451.09;;;12.66;88.56
54270;BME280;40181;51.560;13.000;2023-04-24T06:43:54;99457.31;;;12.62;87.88
54270;BME280;40181;51.560;13.000;2023-04-24T06:46:26;99445.78;;;12.72;87.38
54270;BME280;40181;51.560;13.000;2023-04-24T06:48:55;99455.22;;;12.89;86.19
54270;BME280;40181;51.560;13.000;2023-04-24T06:51:25;99463.00;;;12.95;86.57
54270;BME280;40181;51.560;13.000;2023-04-24T06:53:55;99441.09;;;12.93;85.46
54270;BME280;40181;51.560;13.000;2023-04-24T06:56:25;99445.47;;;12.94;85.35
54270;BME280;40181;51.560;13.000;2023-04-24T06:58:54;99436.63;;;12.98;84.89
54270;BME280;40181;51.560;13.000;2023-04-24T07:01:26;99441.41;;;12.71;85.55
54270;BME280;40181;51.560;13.000;2023-04-24T07:03:55;99439.34;;;12.90;85.25
54270;BME280;40181;51.560;13.000;2023-04-24T07:06:24;99441.00;;;12.99;85.82
54270;BME280;40181;51.560;13.000;2023-04-24T07:08:58;99444.34;;;13.10;85.46
54270;BME280;40181;51.560;13.000;2023-04-24T07:11:28;99451.44;;;13.07;84.69
54270;BME280;40181;51.560;13.000;2023-04-24T07:13:58;99441.75;;;13.07;83.66
54270;BME280;40181;51.560;13.000;2023-04-24T07:16:29;99446.28;;;12.97;83.82
54270;BME280;40181;51.560;13.000;2023-04-24T07:18:58;99435.25;;;13.30;82.82
54270;BME280;40181;51.560;13.000;2023-04-24T07:21:28;99439.59;;;13.34;81.57
54270;BME280;40181;51.560;13.000;2023-04-24T07:23:57;99439.06;;;13.12;82.17
54270;BME280;40181;51.560;13.000;2023-04-24T07:26:26;99438.03;;;13.21;82.04
54270;BME280;40181;51.560;13.000;2023-04-24T07:28:56;99450.16;;;13.33;81.54
54270;BME280;40181;51.560;13.000;2023-04-24T07:31:25;99437.75;;;13.39;81.02
54270;BME280;40181;51.560;13.000;2023-04-24T07:33:57;99442.94;;;13.47;80.25
54270;BME280;40181;51.560;13.000;2023-04-24T07:36:26;99442.94;;;13.44;81.32
54270;BME280;40181;51.560;13.000;2023-04-24T07:38:55;99435.09;;;13.39;80.66
54270;BME280;40181;51.560;13.000;2023-04-24T07:41:25;99456.41;;;13.28;81.55
54270;BME280;40181;51.560;13.000;2023-04-24T07:43:54;99443.34;;;13.19;81.78
54270;BME280;40181;51.560;13.000;2023-04-24T07:46:23;99444.94;;;13.30;81.58
54270;BME280;40181;51.560;13.000;2023-04-24T07:48:57;99438.78;;;13.31;81.37
54270;BME280;40181;51.560;13.000;2023-04-24T07:51:27;99438.59;;;13.45;80.28
54270;BME280;40181;51.560;13.000;2023-04-24T07:53:56;99443.09;;;13.35;80.20
54270;BME280;40181;51.560;13.000;2023-04-24T07:56:25;99443.63;;;13.57;79.26
54270;BME280;40181;51.560;13.000;2023-04-24T07:58:56;99437.09;;;13.25;80.77
54270;BME280;40181;51.560;13.000;2023-04-24T08:01:25;99446.47;;;13.46;79.96
54270;BME280;40181;51.560;13.000;2023-04-24T08:03:57;99440.44;;;13.36;81.11
54270;BME280;40181;51.560;13.000;2023-04-24T08:06:26;99443.06;;;13.36;81.33
54270;BME280;40181;51.560;13.000;2023-04-24T08:08:57;99459.09;;;13.24;80.50
54270;BME280;40181;51.560;13.000;2023-04-24T08:11:26;99451.16;;;13.25;79.94
54270;BME280;40181;51.560;13.000;2023-04-24T08:13:56;99453.53;;;13.42;78.40
54270;BME280;40181;51.560;13.000;2023-04-24T08:16:25;99461.75;;;13.24;79.12
54270;BME280;40181;51.560;13.000;2023-04-24T08:18:56;99463.16;;;13.47;77.72
54270;BME280;40181;51.560;13.000;2023-04-24T08:21:25;99449.97;;;13.48;78.20
54270;BME280;40181;51.560;13.000;2023-04-24T08:23:55;99460.47;;;13.50;78.36
54270;BME280;40181;51.560;13.000;2023-04-24T08:26:24;99468.34;;;13.53;78.23
54270;BME280;40181;51.560;13.000;2023-04-24T08:28:53;99468.72;;;13.26;77.95
54270;BME280;40181;51.560;13.000;2023-04-24T08:31:22;99462.00;;;13.65;77.15
54270;BME280;40181;51.560;13.000;2023-04-24T08:33:52;99450.50;;;13.67;77.06
54270;BME280;40181;51.560;13.000;2023-04-24T08:36:23;99456.00;;;13.55;77.19
54270;BME280;40181;51.560;13.000;2023-04-24T08:38:53;99464.72;;;13.60;76.46
54270;BME280;40181;51.560;13.000;2023-04-24T08:41:22;99464.50;;;13.73;75.60
54270;BME280;40181;51.560;13.000;2023-04-24T08:43:51;99470.28;;;13.95;75.61
54270;BME280;40181;51.560;13.000;2023-04-24T08:46:24;99477.94;;;14.09;74.37
54270;BME280;40181;51.560;13.000;2023-04-24T08:48:53;99477.84;;;14.15;73.62
54270;BME280;40181;51.560;13.000;2023-04-24T08:51:26;99461.63;;;13.85;74.06
54270;BME280;40181;51.560;13.000;2023-04-24T08:53:55;99470.81;;;14.14;74.10
54270;BME280;40181;51.560;13.000;2023-04-24T08:56:26;99465.63;;;14.53;72.54
54270;BME280;40181;51.560;13.000;2023-04-24T08:58:57;99463.06;;;14.50;71.53
54270;BME280;40181;51.560;13.000;2023-04-24T09:01:26;99463.16;;;13.99;73.19
54270;BME280;40181;51.560;13.000;2023-04-24T09:03:57;99479.78;;;14.49;71.43
54270;BME280;40181;51.560;13.000;2023-04-24T09:06:29;99469.28;;;14.48;71.75
54270;BME280;40181;51.560;13.000;2023-04-24T09:09:00;99466.78;;;14.40;71.53
54270;BME280;40181;51.560;13.000;2023-04-24T09:11:31;99470.38;;;14.36;70.99
54270;BME280;40181;51.560;13.000;2023-04-24T09:14:01;99479.59;;;14.15;72.57
54270;BME280;40181;51.560;13.000;2023-04-24T09:16:31;99474.75;;;14.38;71.23
54270;BME280;40181;51.560;13.000;2023-04-24T09:19:00;99471.03;;;14.47;70.98
54270;BME280;40181;51.560;13.000;2023-04-24T09:21:34;99486.97;;;14.43;70.54
54270;BME280;40181;51.560;13.000;2023-04-24T09:24:07;99475.06;;;14.21;70.47
54270;BME280;40181;51.560;13.000;2023-04-24T09:26:43;99490.44;;;14.46;70.13
54270;BME280;40181;51.560;13.000;2023-04-24T09:29:15;99476.91;;;14.63;69.12
54270;BME280;40181;51.560;13.000;2023-04-24T09:31:45;99470.81;;;14.58;70.69
54270;BME280;40181;51.560;13.000;2023-04-24T09:34:19;99470.66;;;14.66;69.41
54270;BME280;40181;51.560;13.000;2023-04-24T09:36:52;99472.31;;;14.26;69.21
54270;BME280;40181;51.560;13.000;2023-04-24T09:39:22;99475.31;;;14.55;69.22
54270;BME280;40181;51.560;13.000;2023-04-24T09:41:52;99463.88;;;14.54;68.95
54270;BME280;40181;51.560;13.000;2023-04-24T09:44:25;99476.09;;;14.60;69.10
54270;BME280;40181;51.560;13.000;2023-04-24T09:46:57;99466.94;;;14.31;68.82
54270;BME280;40181;51.560;13.000;2023-04-24T09:49:27;99469.19;;;14.52;68.73
54270;BME280;40181;51.560;13.000;2023-04-24T09:52:05;99466.91;;;14.34;68.54
54270;BME280;40181;51.560;13.000;2023-04-24T09:54:36;99475.69;;;14.36;68.54
54270;BME280;40181;51.560;13.000;2023-04-24T09:57:07;99470.13;;;14.48;68.77
54270;BME280;40181;51.560;13.000;2023-04-24T09:59:41;99465.66;;;14.52;68.39
54270;BME280;40181;51.560;13.000;2023-04-24T10:02:17;99473.25;;;14.69;68.17
54270;BME280;40181;51.560;13.000;2023-04-24T10:04:54;99465.31;;;14.69;68.48
54270;BME280;40181;51.560;13.000;2023-04-24T10:07:28;99470.31;;;14.39;69.04
54270;BME280;40181;51.560;13.000;2023-04-24T10:09:57;99467.69;;;14.83;69.13
54270;BME280;40181;51.560;13.000;2023-04-24T10:12:27;99466.16;;;14.73;68.94
54270;BME280;40181;51.560;13.000;2023-04-24T10:14:57;99449.50;;;14.68;69.36
54270;BME280;40181;51.560;13.000;2023-04-24T10:17:28;99472.22;;;14.78;69.42
54270;BME280;40181;51.560;13.000;2023-04-24T10:19:57;99460.97;;;14.66;69.45
54270;BME280;40181;51.560;13.000;2023-04-24T10:22:30;99466.31;;;14.63;69.02
54270;BME280;40181;51.560;13.000;2023-04-24T10:25:04;99468.91;;;14.65;68.51
54270;BME280;40181;51.560;13.000;2023-04-24T10:27:34;99463.00;;;14.52;68.23
54270;BME280;40181;51.560;13.000;2023-04-24T10:30:06;99462.56;;;14.75;66.69
54270;BME280;40181;51.560;13.000;2023-04-24T10:32:36;99458.06;;;14.80;67.12
54270;BME280;40181;51.560;13.000;2023-04-24T10:35:06;99470.41;;;14.80;66.19
54270;BME280;40181;51.560;13.000;2023-04-24T10:37:42;99460.81;;;14.76;65.25
54270;BME280;40181;51.560;13.000;2023-04-24T10:40:17;99455.81;;;15.03;63.77
54270;BME280;40181;51.560;13.000;2023-04-24T10:42:48;99460.81;;;14.76;63.64
54270;BME280;40181;51.560;13.000;2023-04-24T10:45:19;99481.63;;;14.91;62.69
54270;BME280;40181;51.560;13.000;2023-04-24T10:47:53;99474.88;;;14.76;63.99
54270;BME280;40181;51.560;13.000;2023-04-24T10:50:27;99477.59;;;14.72;63.71
54270;BME280;40181;51.560;13.000;2023-04-24T10:53:17;99482.50;;;14.48;64.98
54270;BME280;40181;51.560;13.000;2023-04-24T10:55:50;99485.16;;;14.46;65.00
54270;BME280;40181;51.560;13.000;2023-04-24T10:58:22;99488.63;;;14.48;63.42
54270;BME280;40181;51.560;13.000;2023-04-24T11:00:56;99477.78;;;14.62;62.90
54270;BME280;40181;51.560;13.000;2023-04-24T11:03:28;99491.06;;;14.59;62.96
54270;BME280;40181;51.560;13.000;2023-04-24T11:06:00;99489.13;;;14.68;61.73
54270;BME280;40181;51.560;13.000;2023-04-24T11:08:38;99482.31;;;14.57;62.13
54270;BME280;40181;51.560;13.000;2023-04-24T11:11:11;99485.31;;;14.38;61.68
54270;BME280;40181;51.560;13.000;2023-04-24T11:14:09;99475.91;;;14.68;61.22
54270;BME280;40181;51.560;13.000;2023-04-24T11:16:52;99468.19;;;15.01;59.83
54270;BME280;40181;51.560;13.000;2023-04-24T11:19:23;99483.06;;;15.06;60.05
54270;BME280;40181;51.560;13.000;2023-04-24T11:21:59;99479.59;;;15.04;58.97
54270;BME280;40181;51.560;13.000;2023-04-24T11:24:38;99489.78;;;15.21;57.44
54270;BME280;40181;51.560;13.000;2023-04-24T11:27:12;99475.66;;;14.82;58.17
54270;BME280;40181;51.560;13.000;2023-04-24T11:29:46;99477.25;;;14.90;56.91
54270;BME280;40181;51.560;13.000;2023-04-24T11:32:28;99474.47;;;15.34;56.97
54270;BME280;40181;51.560;13.000;2023-04-24T11:35:00;99486.00;;;14.92;54.72
54270;BME280;40181;51.560;13.000;2023-04-24T11:37:34;99483.88;;;15.10;53.69
54270;BME280;40181;51.560;13.000;2023-04-24T11:40:09;99485.31;;;15.24;52.86
54270;BME280;40181;51.560;13.000;2023-04-24T11:42:42;99488.44;;;15.02;52.81
54270;BME280;40181;51.560;13.000;2023-04-24T11:45:13;99491.84;;;15.07;52.61
54270;BME280;40181;51.560;13.000;2023-04-24T11:47:44;99510.81;;;15.28;53.19
54270;BME280;40181;51.560;13.000;2023-04-24T11:50:15;99484.84;;;15.44;51.34
54270;BME280;40181;51.560;13.000;2023-04-24T11:52:47;99509.69;;;15.76;51.33
54270;BME280;40181;51.560;13.000;2023-04-24T11:55:28;99487.59;;;15.77;50.25
54270;BME280;40181;51.560;13.000;2023-04-24T11:57:58;99488.31;;;15.82;49.88
54270;BME280;40181;51.560;13.000;2023-04-24T12:00:29;99489.22;;;15.81;49.75
54270;BME280;40181;51.560;13.000;2023-04-24T12:03:07;99508.91;;;16.07;48.53
54270;BME280;40181;51.560;13.000;2023-04-24T12:05:37;99477.38;;;16.31;48.38
54270;BME280;40181;51.560;13.000;2023-04-24T12:08:07;99486.25;;;16.62;48.25
54270;BME280;40181;51.560;13.000;2023-04-24T12:10:38;99485.31;;;16.31;47.66
54270;BME280;40181;51.560;13.000;2023-04-24T12:13:09;99491.22;;;16.41;47.16
54270;BME280;40181;51.560;13.000;2023-04-24T12:15:39;99499.78;;;16.19;47.39
54270;BME280;40181;51.560;13.000;2023-04-24T12:18:11;99506.53;;;15.96;46.83
54270;BME280;40181;51.560;13.000;2023-04-24T12:20:42;99530.50;;;15.54;46.62
54270;BME280;40181;51.560;13.000;2023-04-24T12:23:11;99501.91;;;16.04;45.77
54270;BME280;40181;51.560;13.000;2023-04-24T12:25:43;99496.19;;;16.22;45.47
54270;BME280;40181;51.560;13.000;2023-04-24T12:28:12;99489.47;;;16.07;43.80
54270;BME280;40181;51.560;13.000;2023-04-24T12:30:43;99495.44;;;16.48;43.15
54270;BME280;40181;51.560;13.000;2023-04-24T12:33:17;99501.44;;;16.55;42.87
54270;BME280;40181;51.560;13.000;2023-04-24T12:35:47;99487.00;;;16.34;43.06
54270;BME280;40181;51.560;13.000;2023-04-24T12:38:22;99476.59;;;16.59;41.68
54270;BME280;40181;51.560;13.000;2023-04-24T12:41:05;99502.63;;;16.74;42.04
54270;BME280;40181;51.560;13.000;2023-04-24T12:43:36;99504.34;;;16.45;42.78
54270;BME280;40181;51.560;13.000;2023-04-24T12:46:05;99491.53;;;15.97;41.88
54270;BME280;40181;51.560;13.000;2023-04-24T12:48:34;99489.19;;;16.19;41.55
54270;BME280;40181;51.560;13.000;2023-04-24T12:51:04;99513.25;;;15.73;42.59
54270;BME280;40181;51.560;13.000;2023-04-24T12:53:33;99502.69;;;16.08;41.71
54270;BME280;40181;51.560;13.000;2023-04-24T12:56:05;99505.38;;;17.03;40.47
54270;BME280;40181;51.560;13.000;2023-04-24T12:58:34;99501.81;;;16.41;40.70
54270;BME280;40181;51.560;13.000;2023-04-24T13:01:03;99501.84;;;16.08;41.66
54270;BME280;40181;51.560;13.000;2023-04-24T13:03:33;99498.63;;;16.91;41.34
54270;BME280;40181;51.560;13.000;2023-04-24T13:06:02;99502.47;;;15.81;41.51
54270;BME280;40181;51.560;13.000;2023-04-24T13:08:31;99496.84;;;15.95;41.94